Time;durP1;ratioP1;P1;durP2;ratioP2;P2;SDS_P1;SDS_P2;PMS_P1;PMS_P2;Temp;Humidity;BMP_temperature;BMP_pressure;BME280_temperature;BME280_humidity;BME280_pressure;Samples;Min_cycle;Max_cycle;Signal;HPM_P1;HPM_P2
2022/08/03 00:00:47;;;;;;;6.10;1.90;;;22.80;67.90;;;;;;5116308;28;20032;-74
2022/08/03 00:03:12;;;;;;;5.53;1.85;;;22.80;67.70;;;;;;5115239;28;20028;-74
2022/08/03 00:05:38;;;;;;;5.63;2.35;;;22.80;67.50;;;;;;5115059;28;20036;-73
2022/08/03 00:08:04;;;;;;;3.28;1.70;;;22.70;67.10;;;;;;5115262;28;20050;-74
2022/08/03 00:10:30;;;;;;;4.78;1.83;;;22.70;67.20;;;;;;5115990;28;20024;-74
2022/08/03 00:12:55;;;;;;;3.42;1.77;;;22.70;66.60;;;;;;5115014;28;20084;-74
2022/08/03 00:15:21;;;;;;;4.13;2.00;;;22.70;66.80;;;;;;5116028;28;20016;-74
2022/08/03 00:17:47;;;;;;;6.15;2.13;;;22.60;66.70;;;;;;5115764;28;20046;-74
2022/08/03 00:20:12;;;;;;;3.22;1.58;;;22.60;66.90;;;;;;5115826;28;20031;-74
2022/08/03 00:22:38;;;;;;;10.02;2.50;;;22.50;67.50;;;;;;5115734;28;20035;-74
2022/08/03 00:25:04;;;;;;;4.85;1.85;;;22.30;67.70;;;;;;5115733;28;20028;-74
2022/08/03 00:27:29;;;;;;;3.80;1.88;;;22.40;67.90;;;;;;5115663;28;20023;-74
2022/08/03 00:29:55;;;;;;;5.07;1.90;;;22.30;67.80;;;;;;5115548;28;20032;-74
2022/08/03 00:32:21;;;;;;;5.15;2.10;;;22.40;68.00;;;;;;5115589;28;20054;-74
2022/08/03 00:34:46;;;;;;;4.93;2.60;;;22.40;67.90;;;;;;5115531;28;20035;-74
2022/08/03 00:37:12;;;;;;;5.88;2.00;;;22.40;67.90;;;;;;5115387;28;20032;-74
2022/08/03 00:39:38;;;;;;;6.00;2.00;;;22.30;68.00;;;;;;5115445;28;20028;-74
2022/08/03 00:42:04;;;;;;;7.72;2.03;;;22.30;68.30;;;;;;5115362;28;20035;-74
2022/08/03 00:44:30;;;;;;;3.97;1.80;;;22.30;68.10;;;;;;5115332;28;20024;-74
2022/08/03 00:46:55;;;;;;;4.05;1.77;;;22.20;67.80;;;;;;5115305;28;20016;-74
2022/08/03 00:49:22;;;;;;;6.25;1.98;;;22.20;67.40;;;;;;5115239;28;20491;-74
2022/08/03 00:51:47;;;;;;;6.10;1.77;;;22.20;67.40;;;;;;5115199;28;20024;-74
2022/08/03 00:54:14;;;;;;;4.63;2.03;;;21.90;68.00;;;;;;5115285;28;20056;-74
2022/08/03 00:56:41;;;;;;;3.30;1.60;;;21.90;68.90;;;;;;5113829;28;20052;-74
2022/08/03 00:59:09;;;;;;;4.88;2.10;;;22.00;68.90;;;;;;5113565;28;20046;-74
2022/08/03 01:01:34;;;;;;;5.05;2.17;;;22.10;68.90;;;;;;5115001;28;20020;-74
2022/08/03 01:04:00;;;;;;;5.97;2.30;;;22.00;68.60;;;;;;5114960;28;20035;-73
2022/08/03 01:06:51;;;;;;;11.13;2.50;;;21.90;69.10;;;;;;5114896;28;20065;-74
2022/08/03 01:09:24;;;;;;;6.47;2.47;;;21.80;69.60;;;;;;5111583;28;20036;-73
2022/08/03 01:12:09;;;;;;;8.85;2.47;;;21.70;70.00;;;;;;5114958;28;20032;-74
2022/08/03 01:14:45;;;;;;;6.63;2.70;;;21.70;70.50;;;;;;5114816;28;20020;-74
2022/08/03 01:17:36;;;;;;;5.90;2.35;;;21.80;70.00;;;;;;5114681;28;20028;-74
2022/08/03 01:20:08;;;;;;;6.10;2.35;;;21.90;69.30;;;;;;5114684;28;20020;-74
2022/08/03 01:22:54;;;;;;;4.97;3.05;;;21.60;69.10;;;;;;5114673;28;20041;-74
2022/08/03 01:25:29;;;;;;;9.82;3.00;;;21.40;70.40;;;;;;5114521;28;20035;-74
2022/08/03 01:28:16;;;;;;;6.88;2.70;;;21.30;70.40;;;;;;5114457;28;20048;-74
2022/08/03 01:30:44;;;;;;;4.57;2.60;;;21.30;70.70;;;;;;5114508;28;20020;-74
2022/08/03 01:33:23;;;;;;;6.57;2.92;;;21.50;70.80;;;;;;5114420;28;20016;-74
2022/08/03 01:36:20;;;;;;;6.97;3.13;;;21.50;70.70;;;;;;5114268;28;20112;-74
2022/08/03 01:38:54;;;;;;;8.70;2.97;;;21.40;71.20;;;;;;5109760;28;20039;-74
2022/08/03 01:41:23;;;;;;;6.72;2.80;;;21.40;71.30;;;;;;5114419;28;20022;-74
2022/08/03 01:43:52;;;;;;;9.13;3.47;;;21.40;71.50;;;;;;5114387;28;20053;-74
2022/08/03 01:46:19;;;;;;;8.20;3.10;;;21.50;71.30;;;;;;5114209;28;20016;-74
2022/08/03 01:48:47;;;;;;;7.53;3.30;;;21.40;71.50;;;;;;5114149;28;20028;-74
2022/08/03 01:51:15;;;;;;;5.18;2.70;;;21.40;71.70;;;;;;5114127;28;20024;-74
2022/08/03 01:53:44;;;;;;;9.13;3.25;;;21.40;71.30;;;;;;5114046;28;20024;-74
2022/08/03 01:56:12;;;;;;;6.85;3.05;;;21.30;71.10;;;;;;5113781;28;20051;-74
2022/08/03 01:58:40;;;;;;;8.93;2.97;;;21.30;71.50;;;;;;5113976;28;20046;-74
2022/08/03 02:01:07;;;;;;;9.00;2.88;;;21.40;72.30;;;;;;5113941;28;20020;-74
2022/08/03 02:03:37;;;;;;;7.43;3.03;;;21.50;71.30;;;;;;5113644;28;20035;-74
2022/08/03 02:06:03;;;;;;;5.47;2.72;;;21.50;71.30;;;;;;5113925;28;20032;-74
2022/08/03 02:08:31;;;;;;;8.63;2.90;;;21.60;71.20;;;;;;5113835;28;20031;-74
2022/08/03 02:10:58;;;;;;;8.50;3.15;;;21.60;71.00;;;;;;5112923;28;20028;-74
2022/08/03 02:13:25;;;;;;;7.40;2.53;;;21.50;71.30;;;;;;5113767;28;20016;-74
2022/08/03 02:15:52;;;;;;;7.00;2.92;;;21.50;72.20;;;;;;5113630;28;20038;-74
2022/08/03 02:18:19;;;;;;;5.85;2.90;;;21.40;71.50;;;;;;5113686;28;20043;-74
2022/08/03 02:20:46;;;;;;;6.15;2.72;;;21.30;72.10;;;;;;5113711;28;20013;-74
2022/08/03 02:23:14;;;;;;;6.05;2.85;;;21.10;72.40;;;;;;5112627;28;20087;-74
2022/08/03 02:25:47;;;;;;;5.35;2.70;;;21.10;72.80;;;;;;5113633;28;20024;-74
2022/08/03 02:28:37;;;;;;;6.03;3.13;;;21.10;73.20;;;;;;5113713;28;20027;-74
2022/08/03 02:31:07;;;;;;;6.40;2.65;;;20.90;73.50;;;;;;5110757;28;20033;-74
2022/08/03 02:33:41;;;;;;;8.60;3.40;;;20.90;74.00;;;;;;5113720;28;20031;-74
2022/08/03 02:36:08;;;;;;;9.25;3.88;;;20.90;74.50;;;;;;5113451;28;20036;-74
2022/08/03 02:38:37;;;;;;;7.05;3.13;;;20.80;74.80;;;;;;5112545;28;20039;-74
2022/08/03 02:41:07;;;;;;;8.45;2.92;;;20.80;75.30;;;;;;5113400;28;20032;-74
2022/08/03 02:43:36;;;;;;;7.85;3.40;;;20.80;75.20;;;;;;5113691;28;20016;-74
2022/08/03 02:46:01;;;;;;;10.02;3.28;;;20.80;75.10;;;;;;5113437;28;20031;-74
2022/08/03 02:48:31;;;;;;;6.20;3.10;;;20.70;75.10;;;;;;5113406;28;20060;-74
2022/08/03 02:50:58;;;;;;;5.53;2.75;;;20.80;75.10;;;;;;5113527;28;20024;-74
2022/08/03 02:53:25;;;;;;;9.50;3.05;;;20.90;75.00;;;;;;5113155;28;20024;-74
2022/08/03 02:55:54;;;;;;;8.15;3.40;;;20.90;74.80;;;;;;5113044;28;20032;-74
2022/08/03 02:58:22;;;;;;;6.78;3.22;;;21.10;74.70;;;;;;5113421;28;20016;-74
2022/08/03 03:00:50;;;;;;;12.48;3.30;;;21.00;74.50;;;;;;5113279;28;20012;-74
2022/08/03 03:03:16;;;;;;;8.45;3.35;;;20.90;75.70;;;;;;5113269;28;20378;-74
2022/08/03 03:05:43;;;;;;;8.15;3.17;;;20.80;75.40;;;;;;5113259;28;20035;-74
2022/08/03 03:08:13;;;;;;;8.07;3.65;;;20.80;76.20;;;;;;5113223;28;20023;-74
2022/08/03 03:10:39;;;;;;;7.72;3.60;;;20.70;76.70;;;;;;5113162;28;20017;-74
2022/08/03 03:13:07;;;;;;;9.00;3.67;;;20.60;77.20;;;;;;5095475;28;20114;-74
2022/08/03 03:15:36;;;;;;;7.90;3.45;;;20.40;77.90;;;;;;5113055;28;20054;-74
2022/08/03 03:18:02;;;;;;;8.13;3.80;;;20.40;78.40;;;;;;5113130;28;20054;-74
2022/08/03 03:20:29;;;;;;;8.35;4.00;;;20.40;78.70;;;;;;5113080;28;20025;-74
2022/08/03 03:22:57;;;;;;;9.95;3.78;;;20.30;78.90;;;;;;5115043;28;20039;-74
2022/08/03 03:25:23;;;;;;;7.25;3.63;;;20.30;79.40;;;;;;5116871;28;20012;-74
2022/08/03 03:27:49;;;;;;;9.75;3.78;;;20.30;79.00;;;;;;5116726;28;20024;-74
2022/08/03 03:30:15;;;;;;;9.73;4.38;;;20.40;79.10;;;;;;5116972;28;20153;-74
2022/08/03 03:32:41;;;;;;;11.20;3.75;;;20.30;79.10;;;;;;5116746;28;20032;-74
2022/08/03 03:35:08;;;;;;;11.10;4.03;;;20.20;79.40;;;;;;5116684;28;20034;-75
2022/08/03 03:37:34;;;;;;;7.03;3.83;;;20.20;79.50;;;;;;5116574;28;20047;-74
2022/08/03 03:39:59;;;;;;;7.88;3.90;;;20.20;80.50;;;;;;5116632;28;20028;-74
2022/08/03 03:42:26;;;;;;;10.52;3.83;;;20.30;79.80;;;;;;5115635;28;20028;-74
2022/08/03 03:44:51;;;;;;;12.85;4.47;;;20.40;79.50;;;;;;5116591;28;20058;-74
2022/08/03 03:47:17;;;;;;;8.65;4.25;;;20.50;79.30;;;;;;5116449;28;20391;-74
2022/08/03 03:49:44;;;;;;;10.10;3.95;;;20.60;79.20;;;;;;5115581;28;20087;-74
2022/08/03 03:52:09;;;;;;;8.73;4.30;;;20.70;79.10;;;;;;5116370;28;20024;-75
2022/08/03 03:54:43;;;;;;;8.95;4.50;;;20.70;79.10;;;;;;5116336;28;20035;-75
2022/08/03 03:57:10;;;;;;;9.32;4.15;;;20.70;78.70;;;;;;5116037;28;20078;-76
2022/08/03 03:59:40;;;;;;;10.57;4.57;;;20.80;78.50;;;;;;5116223;28;20020;-75
2022/08/03 04:02:06;;;;;;;11.70;4.40;;;20.80;78.40;;;;;;5116179;28;20021;-74
2022/08/03 04:12:56;;;;;;;7.28;3.72;;;20.80;78.20;;;;;;5116105;28;20042;-73
2022/08/03 04:15:23;;;;;;;8.25;4.45;;;20.80;78.20;;;;;;5115929;28;20024;-74
2022/08/03 04:17:50;;;;;;;6.38;3.65;;;20.90;78.10;;;;;;5115814;28;20034;-74
2022/08/03 04:20:18;;;;;;;9.80;4.28;;;20.90;77.80;;;;;;5115973;28;20024;-74
2022/08/03 04:22:46;;;;;;;8.25;4.10;;;20.90;77.80;;;;;;5115779;28;20023;-74
2022/08/03 04:25:17;;;;;;;12.60;4.80;;;20.90;77.90;;;;;;5115729;28;20024;-74
2022/08/03 04:27:43;;;;;;;9.65;4.05;;;20.80;77.90;;;;;;5115746;28;20028;-74
2022/08/03 04:30:10;;;;;;;13.60;4.82;;;20.80;78.00;;;;;;5115561;28;20079;-74
2022/08/03 04:32:37;;;;;;;6.80;4.68;;;20.80;78.20;;;;;;5115635;28;20020;-74
2022/08/03 04:35:03;;;;;;;13.00;4.43;;;20.80;78.10;;;;;;5114650;28;20083;-74
2022/08/03 04:37:42;;;;;;;12.82;4.57;;;20.80;77.90;;;;;;5115426;28;20028;-73
2022/08/03 04:40:14;;;;;;;9.13;4.40;;;20.90;78.00;;;;;;5115630;28;20023;-74
2022/08/03 04:42:41;;;;;;;16.20;4.53;;;20.90;77.70;;;;;;5115575;28;20013;-74
2022/08/03 04:45:11;;;;;;;8.32;4.10;;;20.90;77.70;;;;;;5115337;28;20024;-74
2022/08/03 04:47:37;;;;;;;10.80;4.47;;;21.00;78.00;;;;;;5115279;28;20027;-74
2022/08/03 04:50:05;;;;;;;7.95;4.40;;;20.90;78.70;;;;;;5115265;28;20032;-74
2022/08/03 04:52:31;;;;;;;8.52;4.55;;;20.90;77.80;;;;;;5114233;28;20091;-74
2022/08/03 04:54:57;;;;;;;10.18;4.70;;;20.90;78.00;;;;;;5115128;28;20039;-74
2022/08/03 04:57:23;;;;;;;9.18;4.80;;;20.90;78.20;;;;;;5097001;28;20048;-74
2022/08/03 04:59:55;;;;;;;8.55;4.43;;;20.80;78.20;;;;;;5115181;28;20031;-74
2022/08/03 05:02:22;;;;;;;10.95;4.50;;;20.80;78.40;;;;;;5115047;28;20032;-74
2022/08/03 05:04:48;;;;;;;9.35;4.53;;;20.80;78.40;;;;;;5114937;28;20024;-74
2022/08/03 05:07:16;;;;;;;8.50;4.70;;;20.90;78.50;;;;;;5114960;28;20020;-74
2022/08/03 05:09:42;;;;;;;11.70;4.60;;;21.00;78.30;;;;;;5114939;28;20020;-74
2022/08/03 05:12:08;;;;;;;9.30;4.78;;;20.90;78.20;;;;;;5114799;28;20088;-74
2022/08/03 05:14:37;;;;;;;11.05;4.53;;;21.00;78.20;;;;;;5114783;28;20036;-74
2022/08/03 05:17:05;;;;;;;8.40;5.13;;;21.00;78.20;;;;;;5114642;28;20091;-73
2022/08/03 05:19:31;;;;;;;8.00;4.80;;;21.00;78.50;;;;;;5114685;28;20081;-73
2022/08/03 05:21:57;;;;;;;9.30;4.60;;;20.90;79.00;;;;;;5113598;28;20024;-74
2022/08/03 05:24:23;;;;;;;8.90;4.70;;;20.80;79.90;;;;;;5114599;28;20024;-74
2022/08/03 05:26:49;;;;;;;9.30;5.15;;;20.90;79.50;;;;;;5114536;28;20035;-73
2022/08/03 05:29:15;;;;;;;10.00;4.72;;;20.80;79.50;;;;;;5114420;28;20031;-74
2022/08/03 05:31:40;;;;;;;8.55;4.28;;;20.80;79.40;;;;;;5114469;28;20029;-74
2022/08/03 05:34:06;;;;;;;11.07;4.53;;;20.90;79.80;;;;;;5114382;28;20523;-73
2022/08/03 05:36:32;;;;;;;9.05;4.22;;;20.90;80.40;;;;;;5114320;28;20039;-74
2022/08/03 05:38:57;;;;;;;9.75;4.70;;;20.90;79.70;;;;;;5113556;28;20088;-74
2022/08/03 05:41:23;;;;;;;7.28;4.18;;;20.90;79.60;;;;;;5114268;28;20024;-74
2022/08/03 05:43:53;;;;;;;8.45;4.28;;;21.00;79.60;;;;;;5114340;28;20032;-73
2022/08/03 05:46:19;;;;;;;7.07;4.20;;;21.00;79.10;;;;;;5114046;28;20043;-74
2022/08/03 05:48:45;;;;;;;11.27;4.45;;;21.10;78.80;;;;;;5114181;28;20017;-74
2022/08/03 05:51:11;;;;;;;8.48;4.68;;;21.20;78.60;;;;;;5114121;28;20020;-74
2022/08/03 05:53:37;;;;;;;10.55;5.03;;;21.30;78.30;;;;;;5114109;28;20039;-74
2022/08/03 05:56:03;;;;;;;12.98;5.68;;;21.30;78.30;;;;;;5113745;28;20142;-74
2022/08/03 05:58:28;;;;;;;9.50;4.43;;;21.30;78.10;;;;;;5114020;28;20012;-74
2022/08/03 06:00:54;;;;;;;7.47;4.00;;;21.40;78.00;;;;;;5113945;28;20024;-73
2022/08/03 06:03:20;;;;;;;7.55;4.20;;;21.40;77.70;;;;;;5113050;28;20032;-74
2022/08/03 06:05:46;;;;;;;9.85;4.03;;;21.50;77.80;;;;;;5112937;28;20024;-74
2022/08/03 06:08:12;;;;;;;8.18;3.63;;;21.50;77.60;;;;;;5112871;28;20034;-72
2022/08/03 06:10:37;;;;;;;8.32;4.32;;;21.60;77.30;;;;;;5113820;28;20031;-73
2022/08/03 06:13:03;;;;;;;7.20;4.05;;;21.50;77.50;;;;;;5113747;28;20028;-74
2022/08/03 06:15:34;;;;;;;9.70;3.78;;;21.60;77.40;;;;;;5113702;28;20020;-74
2022/08/03 06:17:59;;;;;;;8.35;3.80;;;21.60;77.30;;;;;;5096474;28;20032;-73
2022/08/03 06:20:25;;;;;;;8.30;3.03;;;21.60;77.70;;;;;;5113674;28;20024;-74
2022/08/03 06:22:52;;;;;;;7.47;2.88;;;21.70;77.20;;;;;;5113624;28;20024;-73
2022/08/03 06:25:18;;;;;;;6.75;3.20;;;21.70;77.00;;;;;;5112648;28;20050;-74
2022/08/03 06:27:44;;;;;;;6.65;3.05;;;21.70;77.10;;;;;;5113574;28;20021;-73
2022/08/03 06:30:11;;;;;;;6.97;3.05;;;21.80;77.00;;;;;;5112608;28;20092;-74
2022/08/03 06:32:38;;;;;;;4.72;3.05;;;21.80;76.50;;;;;;5112455;28;20036;-73
2022/08/03 06:35:06;;;;;;;9.25;2.90;;;21.90;76.60;;;;;;5112505;28;20024;-73
2022/08/03 06:37:45;;;;;;;7.35;3.03;;;22.00;76.10;;;;;;5095591;28;20028;-73
2022/08/03 06:47:08;;;;;;;6.15;2.85;;;22.10;75.50;;;;;;5091484;28;20028;-73
2022/08/03 06:49:50;;;;;;;5.78;2.38;;;22.20;76.00;;;;;;5113418;28;20088;-73
2022/08/03 06:52:19;;;;;;;7.80;2.22;;;22.30;75.50;;;;;;5113416;28;20115;-73
2022/08/03 06:54:44;;;;;;;12.63;2.50;;;22.30;75.70;;;;;;5113325;28;20051;-73
2022/08/03 06:57:10;;;;;;;9.30;2.25;;;22.30;75.10;;;;;;5112878;28;20048;-73
2022/08/03 06:59:36;;;;;;;7.25;2.13;;;22.40;75.10;;;;;;5117383;28;20035;-73
2022/08/03 07:02:03;;;;;;;6.80;2.28;;;22.40;74.20;;;;;;5117369;28;20031;-73
2022/08/03 07:04:29;;;;;;;7.78;2.45;;;22.40;73.50;;;;;;5116395;28;20024;-72
2022/08/03 07:06:54;;;;;;;7.82;2.33;;;22.50;74.00;;;;;;5116318;28;20058;-73
2022/08/03 07:09:20;;;;;;;7.32;2.50;;;22.50;74.10;;;;;;5117201;28;20036;-72
2022/08/03 07:11:45;;;;;;;7.22;2.17;;;22.60;73.30;;;;;;5117171;28;20043;-73
2022/08/03 07:14:11;;;;;;;10.40;2.22;;;22.60;72.60;;;;;;5116086;28;20035;-73
2022/08/03 07:16:37;;;;;;;4.55;1.70;;;22.60;73.20;;;;;;5099058;28;20130;-73
2022/08/03 07:19:02;;;;;;;6.10;1.85;;;22.70;72.70;;;;;;5116133;28;20031;-73
2022/08/03 07:21:28;;;;;;;10.55;2.10;;;22.80;72.40;;;;;;5116073;28;20028;-72
2022/08/03 07:23:53;;;;;;;4.35;1.88;;;22.80;72.20;;;;;;5116925;28;20054;-71
2022/08/03 07:26:19;;;;;;;4.97;1.63;;;22.80;71.30;;;;;;5116892;28;20032;-72
2022/08/03 07:28:45;;;;;;;7.32;1.67;;;22.80;71.00;;;;;;5115861;28;20020;-71
2022/08/03 07:31:10;;;;;;;7.50;1.92;;;22.90;71.10;;;;;;5116783;28;20043;-72
2022/08/03 07:33:36;;;;;;;5.50;1.50;;;22.90;71.10;;;;;;5116760;28;20020;-75
2022/08/03 07:36:01;;;;;;;6.07;1.80;;;22.90;70.30;;;;;;5116631;28;20599;-72
2022/08/03 07:38:28;;;;;;;13.27;2.70;;;23.00;70.50;;;;;;5116690;28;20071;-73
2022/08/03 07:40:54;;;;;;;6.43;1.55;;;23.00;70.90;;;;;;5116561;28;20085;-74
2022/08/03 07:43:20;;;;;;;7.53;1.70;;;23.10;70.40;;;;;;5116580;28;20028;-74
2022/08/03 07:45:45;;;;;;;7.35;1.80;;;23.20;69.90;;;;;;5116558;28;20024;-73
2022/08/03 07:48:11;;;;;;;4.90;1.70;;;23.20;70.10;;;;;;5116483;28;20032;-74
2022/08/03 07:50:36;;;;;;;5.35;1.65;;;23.30;69.30;;;;;;5116436;28;20024;-73
2022/08/03 07:53:06;;;;;;;5.90;1.67;;;23.30;69.30;;;;;;5116323;28;20502;-71
2022/08/03 07:56:10;;;;;;;7.13;1.60;;;23.50;69.40;;;;;;5115343;28;20415;-72
2022/08/03 07:58:36;;;;;;;6.07;1.75;;;23.50;70.20;;;;;;5116513;28;20036;-73
2022/08/03 08:01:02;;;;;;;5.60;1.60;;;23.60;69.70;;;;;;5116187;28;20039;-73
2022/08/03 08:03:27;;;;;;;7.60;1.80;;;23.70;69.50;;;;;;5116323;28;20038;-73
2022/08/03 08:05:53;;;;;;;6.25;1.40;;;23.70;68.20;;;;;;5116295;28;20032;-73
2022/08/03 08:08:19;;;;;;;5.03;1.50;;;23.70;67.00;;;;;;5115387;28;20032;-72
2022/08/03 08:10:46;;;;;;;8.63;1.90;;;23.70;67.00;;;;;;5115420;28;20024;-72
2022/08/03 08:13:12;;;;;;;6.05;1.80;;;23.80;67.10;;;;;;5116008;28;20028;-72
2022/08/03 08:15:37;;;;;;;7.38;1.50;;;23.90;67.10;;;;;;5115996;28;20043;-73
2022/08/03 08:18:03;;;;;;;8.38;1.85;;;23.90;67.60;;;;;;5115901;28;20028;-73
2022/08/03 08:20:31;;;;;;;7.47;1.77;;;24.00;67.20;;;;;;5115853;28;20091;-73
2022/08/03 08:23:03;;;;;;;5.95;1.95;;;24.10;68.50;;;;;;5115812;28;20024;-73
2022/08/03 08:25:30;;;;;;;9.43;1.73;;;24.20;66.90;;;;;;5115774;28;20081;-73
2022/08/03 08:27:56;;;;;;;5.20;1.42;;;24.30;66.00;;;;;;5115622;28;20032;-73
2022/08/03 08:30:22;;;;;;;6.68;1.88;;;24.30;65.50;;;;;;5115665;28;20028;-73
2022/08/03 08:32:49;;;;;;;6.50;1.98;;;24.40;66.40;;;;;;5115654;28;20027;-73
2022/08/03 08:35:15;;;;;;;7.25;1.65;;;24.50;66.50;;;;;;5114539;28;20032;-73
2022/08/03 08:37:42;;;;;;;10.48;1.70;;;24.50;66.20;;;;;;5115495;28;20039;-73
2022/08/03 08:40:09;;;;;;;8.95;1.77;;;24.60;66.40;;;;;;5115467;28;20044;-73
2022/08/03 08:42:39;;;;;;;8.95;2.55;;;24.70;65.60;;;;;;5115566;28;20157;-73
2022/08/03 08:45:07;;;;;;;4.72;1.40;;;24.80;66.30;;;;;;5115390;28;20027;-73
2022/08/03 08:47:35;;;;;;;8.25;1.52;;;25.00;62.70;;;;;;5115358;28;20035;-73
2022/08/03 08:50:02;;;;;;;10.23;1.67;;;25.00;62.00;;;;;;5115254;28;20035;-73
2022/08/03 08:52:29;;;;;;;7.82;1.30;;;25.00;62.50;;;;;;5114228;28;20021;-73
2022/08/03 08:55:02;;;;;;;9.50;1.58;;;25.00;61.90;;;;;;5115201;28;20035;-73
2022/08/03 08:57:32;;;;;;;7.70;1.90;;;25.20;62.80;;;;;;5114932;28;20036;-73
2022/08/03 08:59:58;;;;;;;7.93;1.60;;;25.20;61.10;;;;;;5115280;28;20020;-73
2022/08/03 09:02:24;;;;;;;4.97;1.40;;;25.20;61.80;;;;;;5115033;28;20021;-74
2022/08/03 09:04:50;;;;;;;5.65;1.88;;;25.20;60.80;;;;;;5114976;28;20020;-74
2022/08/03 09:07:16;;;;;;;5.78;1.67;;;25.40;62.00;;;;;;5114130;28;20058;-74
2022/08/03 09:09:42;;;;;;;8.25;1.80;;;25.40;61.50;;;;;;5114912;28;20052;-73
2022/08/03 09:12:34;;;;;;;8.07;1.58;;;25.50;61.20;;;;;;5115184;28;20036;-74
2022/08/03 09:15:48;;;;;;;5.95;1.92;;;25.50;59.60;;;;;;5114076;28;20046;-73
2022/08/03 09:19:14;;;;;;;;;;;;;;;;;;;;;
2022/08/03 09:22:32;;;;;;;8.23;1.90;;;25.60;59.90;;;;;;5109534;28;20052;-73
2022/08/03 09:24:59;;;;;;;6.30;1.67;;;25.80;59.60;;;;;;5114640;28;20066;-73
2022/08/03 09:27:25;;;;;;;8.75;1.45;;;25.80;59.40;;;;;;5114556;28;20024;-73
2022/08/03 09:29:53;;;;;;;6.55;2.00;;;25.80;59.90;;;;;;5114426;28;20039;-74
2022/08/03 09:32:21;;;;;;;5.07;1.30;;;26.00;61.00;;;;;;5114493;28;20036;-74
2022/08/03 09:35:16;;;;;;;7.72;1.58;;;26.10;58.60;;;;;;5114453;28;20044;-74
2022/08/03 09:37:42;;;;;;;5.88;1.45;;;26.20;58.90;;;;;;5071961;28;20069;-73
2022/08/03 09:40:08;;;;;;;4.20;1.42;;;26.20;57.00;;;;;;5109063;28;20044;-74
2022/08/03 09:42:37;;;;;;;11.10;1.42;;;26.30;58.90;;;;;;5114312;28;20016;-73
2022/08/03 09:45:03;;;;;;;4.07;1.00;;;26.40;58.30;;;;;;5114220;28;20026;-73
2022/08/03 09:47:32;;;;;;;5.18;1.30;;;26.50;57.50;;;;;;5114202;28;20107;-73
2022/08/03 09:50:06;;;;;;;6.50;1.40;;;26.60;56.50;;;;;;5114144;28;20483;-72
2022/08/03 09:52:34;;;;;;;8.52;1.60;;;26.60;55.20;;;;;;5114048;28;20051;-73
2022/08/03 09:55:06;;;;;;;5.13;1.70;;;26.70;55.30;;;;;;5113978;28;20031;-72
2022/08/03 09:57:32;;;;;;;8.88;2.00;;;26.70;54.30;;;;;;5113533;28;20079;-73
2022/08/03 10:00:25;;;;;;;6.97;1.30;;;26.80;56.70;;;;;;5114066;28;20048;-73
2022/08/03 10:03:03;;;;;;;5.57;1.60;;;27.00;55.80;;;;;;5112844;28;20085;-72
2022/08/03 10:05:32;;;;;;;4.72;1.50;;;27.00;52.20;;;;;;5113900;28;20087;-72
2022/08/03 10:07:57;;;;;;;5.70;2.60;;;27.00;55.50;;;;;;5113847;28;20032;-72
2022/08/03 10:10:23;;;;;;;6.63;1.15;;;27.00;53.20;;;;;;5113865;28;20024;-73
2022/08/03 10:12:50;;;;;;;4.82;1.65;;;27.10;54.10;;;;;;5113828;28;20070;-72
2022/08/03 10:15:16;;;;;;;7.00;1.40;;;27.20;53.90;;;;;;5113776;28;20084;-73
2022/08/03 10:17:41;;;;;;;6.53;1.38;;;27.20;52.10;;;;;;5113685;28;20445;-72
2022/08/03 10:20:08;;;;;;;8.57;1.65;;;27.40;54.10;;;;;;5113708;28;20032;-72
2022/08/03 10:22:35;;;;;;;9.18;1.73;;;27.50;52.20;;;;;;5113659;28;20024;-73
2022/08/03 10:25:08;;;;;;;7.03;1.65;;;27.60;51.90;;;;;;5113659;28;20048;-73
2022/08/03 10:27:37;;;;;;;6.18;1.50;;;27.60;52.60;;;;;;5113680;28;20046;-72
2022/08/03 10:30:06;;;;;;;5.88;1.60;;;27.60;52.60;;;;;;5113522;28;20054;-73
2022/08/03 10:32:41;;;;;;;8.82;1.50;;;27.70;53.00;;;;;;5111831;28;20024;-72
2022/08/03 10:35:13;;;;;;;4.88;1.52;;;27.80;51.30;;;;;;5113550;28;20036;-72
2022/08/03 10:37:43;;;;;;;8.15;2.13;;;27.70;51.60;;;;;;5113449;28;20024;-72
2022/08/03 10:40:14;;;;;;;6.32;2.00;;;27.80;51.40;;;;;;5113608;28;20034;-72
2022/08/03 10:42:44;;;;;;;11.02;2.05;;;27.90;52.20;;;;;;5113508;28;20094;-72
2022/08/03 10:45:19;;;;;;;9.00;1.60;;;27.90;51.90;;;;;;5113621;28;20012;-72
2022/08/03 10:47:47;;;;;;;8.18;2.10;;;28.00;53.20;;;;;;5113420;28;20028;-73
2022/08/03 10:50:13;;;;;;;11.20;1.83;;;28.20;51.70;;;;;;5113386;28;20016;-72
2022/08/03 10:52:55;;;;;;;10.52;1.75;;;28.30;51.90;;;;;;5113377;28;20050;-72
2022/08/03 10:58:48;;;;;;;7.47;1.73;;;28.40;50.30;;;;;;5113200;28;20458;-73
2022/08/03 11:01:16;;;;;;;10.35;1.92;;;28.30;50.10;;;;;;5113307;28;20050;-72
2022/08/03 11:04:01;;;;;;;10.93;1.80;;;28.30;50.80;;;;;;5113410;28;20073;-72
2022/08/03 11:06:27;;;;;;;9.45;2.47;;;28.50;49.40;;;;;;5109201;28;20079;-72
2022/08/03 11:09:08;;;;;;;9.52;2.05;;;28.70;50.30;;;;;;5113171;28;20024;-72
2022/08/03 11:11:34;;;;;;;15.73;2.47;;;28.70;50.60;;;;;;5113181;28;20032;-72
2022/08/03 11:14:16;;;;;;;11.90;1.90;;;28.70;49.60;;;;;;5113204;28;20031;-72
2022/08/03 11:16:48;;;;;;;10.82;2.05;;;28.80;48.80;;;;;;5113217;28;20025;-72
2022/08/03 11:19:21;;;;;;;;;;;28.80;49.60;;;;;;5113621;28;20016;-72
2022/08/03 11:24:39;;;;;;;8.07;1.95;;;28.90;49.30;;;;;;5113112;28;20020;-72
2022/08/03 11:27:17;;;;;;;12.88;2.20;;;29.00;49.30;;;;;;5113046;28;20024;-73
2022/08/03 11:30:21;;;;;;;8.10;1.60;;;29.10;48.70;;;;;;5113115;28;20028;-72
2022/08/03 11:32:47;;;;;;;8.65;1.33;;;29.10;50.00;;;;;;5111837;28;20043;-72
2022/08/03 11:35:18;;;;;;;9.25;2.33;;;29.30;49.70;;;;;;5112982;28;20075;-72
2022/08/03 11:37:53;;;;;;;12.73;1.88;;;29.30;47.60;;;;;;5112924;28;20032;-72
2022/08/03 11:40:46;;;;;;;7.55;2.45;;;29.40;46.90;;;;;;5112946;28;20067;-72
2022/08/03 11:43:24;;;;;;;6.95;1.45;;;29.50;47.40;;;;;;5112576;28;20092;-72
2022/08/03 11:46:15;;;;;;;8.75;1.58;;;29.60;45.10;;;;;;5116538;28;20020;-72
2022/08/03 11:48:43;;;;;;;8.15;1.50;;;29.50;45.70;;;;;;5116560;28;20084;-72
2022/08/03 11:51:19;;;;;;;8.18;1.60;;;29.50;47.10;;;;;;5116468;28;20579;-72
2022/08/03 11:53:46;;;;;;;9.50;1.95;;;29.50;45.20;;;;;;5116484;28;20056;-72
2022/08/03 11:56:12;;;;;;;12.63;2.08;;;29.60;46.60;;;;;;5116275;28;20020;-72
2022/08/03 11:58:47;;;;;;;9.38;1.92;;;29.70;46.30;;;;;;5114783;28;20044;-72
2022/08/03 12:01:15;;;;;;;8.45;2.03;;;29.60;44.30;;;;;;5116346;28;20475;-73
2022/08/03 12:03:42;;;;;;;8.68;1.77;;;29.70;46.40;;;;;;5116216;28;20024;-72
2022/08/03 12:06:12;;;;;;;10.77;1.98;;;29.90;44.80;;;;;;5116126;28;20023;-72
2022/08/03 12:08:39;;;;;;;8.25;1.40;;;30.00;44.80;;;;;;5116258;28;20073;-72
2022/08/03 12:11:06;;;;;;;6.20;1.85;;;30.10;44.70;;;;;;5116085;28;20076;-72
2022/08/03 12:13:41;;;;;;;8.82;1.40;;;30.10;44.80;;;;;;5115088;28;20032;-72
2022/08/03 12:16:07;;;;;;;8.18;1.20;;;30.20;44.70;;;;;;5115968;28;20024;-73
2022/08/03 12:18:33;;;;;;;8.02;1.92;;;30.30;44.10;;;;;;5115950;28;20027;-72
2022/08/03 12:21:06;;;;;;;9.75;1.27;;;30.40;45.30;;;;;;5115991;28;20016;-72
2022/08/03 12:23:32;;;;;;;5.72;1.20;;;30.50;43.90;;;;;;5115840;28;20020;-72
2022/08/03 12:26:08;;;;;;;6.55;1.45;;;30.50;43.90;;;;;;5115783;28;20053;-72
2022/08/03 12:28:35;;;;;;;7.65;1.70;;;30.50;44.10;;;;;;5115751;28;20024;-72
2022/08/03 12:31:06;;;;;;;9.77;1.17;;;30.70;43.80;;;;;;5114762;28;20027;-72
2022/08/03 12:33:52;;;;;;;8.38;1.90;;;30.70;42.80;;;;;;5115714;28;20017;-72
2022/08/03 12:36:18;;;;;;;6.93;1.55;;;30.70;44.10;;;;;;5114341;28;20036;-72
2022/08/03 12:38:57;;;;;;;7.28;1.50;;;30.70;42.30;;;;;;5115547;28;20028;-72
2022/08/03 12:41:34;;;;;;;5.03;1.70;;;30.90;41.90;;;;;;5111863;28;20381;-73
2022/08/03 12:44:02;;;;;;;5.90;1.23;;;31.10;42.70;;;;;;5115451;28;20028;-73
2022/08/03 12:46:33;;;;;;;7.40;1.65;;;31.30;42.80;;;;;;5115361;28;20430;-73
2022/08/03 12:49:02;;;;;;;8.65;1.67;;;31.30;40.90;;;;;;5115364;28;20031;-73
2022/08/03 12:51:29;;;;;;;6.00;1.45;;;31.30;40.50;;;;;;5115292;28;20032;-73
2022/08/03 12:53:56;;;;;;;7.20;1.42;;;31.40;41.30;;;;;;5115242;28;20027;-73
2022/08/03 12:56:22;;;;;;;6.03;1.27;;;31.50;41.20;;;;;;5114328;28;20024;-73
2022/08/03 12:58:49;;;;;;;4.95;1.45;;;31.60;40.60;;;;;;5114908;28;20044;-73
2022/08/03 13:01:15;;;;;;;6.88;1.30;;;31.70;41.30;;;;;;5115104;28;20028;-73
2022/08/03 13:03:44;;;;;;;6.75;1.65;;;31.50;40.90;;;;;;5115086;28;20027;-73
2022/08/03 13:06:14;;;;;;;4.90;1.17;;;31.60;40.30;;;;;;5114988;28;20028;-73
2022/08/03 13:08:41;;;;;;;4.80;1.60;;;31.70;40.50;;;;;;5114991;28;20044;-73
2022/08/03 13:11:25;;;;;;;12.52;1.58;;;31.80;40.10;;;;;;5114818;28;20099;-73
2022/08/03 13:13:52;;;;;;;7.05;1.20;;;32.00;39.60;;;;;;5114934;28;20088;-72
2022/08/03 13:16:18;;;;;;;9.48;1.80;;;31.90;38.90;;;;;;5114742;28;20092;-73
2022/08/03 13:18:45;;;;;;;4.97;1.35;;;31.70;38.70;;;;;;5114782;28;20024;-73